Nitra, Slovensko

08:45 PM CET dna 22 December, 2014 (GMT +0100)
INITRANI2 | Change Station
CLOSE
Current Station
Personal Weather Stations
Location: Nitrianske Hrnciarovce, Nitriansky kraj
Nad. výška:: 837 ft
Najbližšie meteo stanice

Elev 837 ft 48.34 °N, 18.13 °E | Updated 4 minutes ago

Clear
Jasno
47.8 °F
Feels Like 48 °F
N
0.0
Vietor meniaci sa Vietor from VJV
Gusts 0.0 mph

Dnes
High -- | Low -- °F
--% Chance of Precip.
Yesterday
High -- | Low -- °F
Precip. -- in
7:36 AM 3:55 PM
Nov, 1% visible
Tlak 30.09 in
Viditeľnosť -9999.0 mile
Oblačnost
Pocitová teplota 48 °F
Rosný bod 40 °F
Vlhkosť 75%
Rainfall 0.00 in
Výška snehu Not available.
UV Not available.
Pollen Not available.
Air Quality Not available.
Flu Activity Not available.
METAR LZIB 221930Z 28011KT CAVOK 10/02 Q1019

More Conditions Fewer Conditions

Tlak 30.09 in
Viditeľnosť -9999.0 mile
Oblačnost
Pocitová teplota 48 °F
Rosný bod 40 °F
Vlhkosť 75%
Rainfall 0.00 in
Výška snehu Not available.
UV Not available.
Pollen Not available.
Air Quality Not available.
Flu Activity Not available.
METAR LZIB 221930Z 28011KT CAVOK 10/02 Q1019

More Conditions Fewer Conditions

10-Day Weather Forecast

Almanac

Astronómia

Dec. 22, 2014 Východ Západ
Aktuálny čas
Civil Twilight
Nautical Twilight
Astronomical Twilight
Mesiac
Length Of Visible Light
Dĺžka dňa
Tomorrow will be .
, % of the Moon is Illuminated

Today's Extremes

Country Highs Country Lows

Community

WunderPhotos

Upload Photos

1,779,699 photos uploaded!

WunderBlogs® & News

Nearby

Air Quality

  Air Quality AQ Index Pollutant
Not available.

Výska snehu

Station Depth Nad. výška:

Aktivita zemetrasenia

Mesto Distance Mag. Time & Date
Minimum magnitude displayed is 2.5.

Coastal Water Temperatures

Miesto Teplota

Najbližšie meteo stanice